Time;durP1;ratioP1;P1;durP2;ratioP2;P2;SDS_P1;SDS_P2;PMS_P1;PMS_P2;Temp;Humidity;BMP_temperature;BMP_pressure;BME280_temperature;BME280_humidity;BME280_pressure;Samples;Min_cycle;Max_cycle;Signal;HPM_P1;HPM_P2
2023/12/07 00:03:06;;;;;;;169.30;84.20;;;-0.10;1.00;;;;;;8363778;28;20217;-62
2023/12/07 00:07:07;;;;;;;165.17;84.50;;;-0.10;1.00;;;;;;8373895;28;20213;-64
2023/12/07 00:11:08;;;;;;;143.23;76.00;;;-0.10;1.00;;;;;;8371337;28;20283;-62
2023/12/07 00:15:09;;;;;;;176.87;86.67;;;-0.10;99.90;;;;;;8370381;28;20276;-62
2023/12/07 00:19:10;;;;;;;168.80;85.07;;;-0.10;99.90;;;;;;8372101;28;20408;-62
2023/12/07 00:23:11;;;;;;;150.40;77.53;;;-0.10;99.90;;;;;;8370203;28;20189;-62
2023/12/07 00:27:12;;;;;;;152.23;77.73;;;0.00;99.90;;;;;;8371960;28;20208;-62
2023/12/07 00:31:13;;;;;;;155.30;76.00;;;0.00;99.90;;;;;;8372857;28;20205;-63
2023/12/07 00:35:15;;;;;;;184.83;94.60;;;0.00;1.00;;;;;;8366566;28;20181;-62
2023/12/07 00:39:16;;;;;;;192.97;90.70;;;0.00;1.00;;;;;;8371192;28;20207;-62
2023/12/07 00:43:17;;;;;;;156.73;80.73;;;-0.10;99.90;;;;;;8369851;28;20197;-63
2023/12/07 00:47:18;;;;;;;167.27;83.60;;;-0.10;99.90;;;;;;8371515;28;20192;-63
2023/12/07 00:51:19;;;;;;;134.70;68.03;;;-0.20;99.90;;;;;;8367471;28;20181;-64
2023/12/07 00:55:22;;;;;;;115.10;61.23;;;-0.20;99.90;;;;;;8368439;28;20213;-63
2023/12/07 00:59:22;;;;;;;107.43;57.53;;;-0.10;1.00;;;;;;8373497;28;20222;-67
2023/12/07 01:03:23;;;;;;;108.90;55.83;;;-0.10;99.90;;;;;;8372267;28;20207;-67
2023/12/07 01:07:24;;;;;;;106.13;56.10;;;0.00;99.90;;;;;;8378943;28;20185;-66
2023/12/07 01:11:29;;;;;;;107.97;53.90;;;0.10;99.90;;;;;;8374750;28;20521;-66
2023/12/07 01:15:31;;;;;;;98.47;48.27;;;0.10;99.90;;;;;;8377950;28;20177;-67
2023/12/07 01:19:31;;;;;;;97.67;46.37;;;0.20;99.90;;;;;;8376340;28;20461;-67
2023/12/07 01:23:32;;;;;;;100.80;47.30;;;0.20;99.90;;;;;;8375085;28;20524;-67
2023/12/07 01:27:34;;;;;;;94.80;44.77;;;0.30;99.90;;;;;;8374798;28;20188;-67
2023/12/07 01:31:35;;;;;;;85.27;42.33;;;0.30;99.90;;;;;;8370730;28;20502;-66
2023/12/07 01:35:36;;;;;;;83.03;40.10;;;0.30;99.90;;;;;;8373865;28;20189;-67
2023/12/07 01:39:37;;;;;;;78.33;36.77;;;0.40;99.90;;;;;;8371675;28;20181;-67
2023/12/07 01:43:47;;;;;;;83.27;38.63;;;0.40;99.90;;;;;;8376200;28;20207;-67
2023/12/07 01:47:51;;;;;;;71.50;37.30;;;0.40;99.90;;;;;;8376465;28;20484;-67
2023/12/07 01:51:54;;;;;;;69.20;32.73;;;0.40;99.90;;;;;;8378326;28;20251;-66
2023/12/07 01:55:55;;;;;;;73.70;34.63;;;0.40;99.90;;;;;;8374658;28;20272;-67
2023/12/07 01:59:56;;;;;;;61.83;32.07;;;0.40;99.90;;;;;;8374569;28;20235;-68
2023/12/07 02:03:57;;;;;;;64.57;32.50;;;0.40;99.90;;;;;;8374325;28;20201;-68
2023/12/07 02:07:58;;;;;;;61.00;28.87;;;0.40;99.90;;;;;;8374115;28;20194;-68
2023/12/07 02:12:00;;;;;;;58.87;29.73;;;0.50;99.90;;;;;;8377351;28;20298;-68
2023/12/07 02:16:30;;;;;;;56.80;27.57;;;0.50;99.90;;;;;;8377387;28;20196;-68
2023/12/07 02:20:47;;;;;;;53.47;26.60;;;0.50;99.90;;;;;;8364082;28;20556;-68
2023/12/07 02:24:58;;;;;;;53.97;26.40;;;0.50;99.90;;;;;;8361200;28;20300;-68
2023/12/07 02:28:59;;;;;;;46.60;23.97;;;0.50;99.90;;;;;;8372497;28;20214;-69
2023/12/07 02:33:00;;;;;;;49.77;25.10;;;0.50;99.90;;;;;;8372484;28;20193;-68
2023/12/07 02:37:03;;;;;;;44.97;22.40;;;0.50;99.90;;;;;;8373663;28;20190;-68
2023/12/07 02:41:04;;;;;;;42.00;21.27;;;0.50;99.90;;;;;;8366761;28;20346;-69
2023/12/07 02:45:07;;;;;;;34.33;19.13;;;0.50;99.90;;;;;;8372679;28;20216;-67
2023/12/07 02:49:08;;;;;;;40.60;20.03;;;0.50;99.90;;;;;;8366026;28;20200;-67
2023/12/07 02:53:09;;;;;;;38.40;19.87;;;0.50;99.90;;;;;;8379988;28;20196;-69
2023/12/07 02:57:11;;;;;;;34.50;17.90;;;0.50;99.90;;;;;;8364701;28;20287;-68
2023/12/07 03:01:11;;;;;;;32.67;17.70;;;0.50;99.90;;;;;;8369626;28;20224;-68
2023/12/07 03:05:12;;;;;;;32.80;17.70;;;0.50;99.90;;;;;;8374207;28;20269;-67
2023/12/07 03:09:13;;;;;;;28.97;16.07;;;0.50;99.90;;;;;;8372755;28;20220;-69
2023/12/07 03:13:17;;;;;;;30.70;15.43;;;0.50;99.90;;;;;;8377968;28;20197;-70
2023/12/07 03:17:17;;;;;;;30.23;15.80;;;0.50;99.90;;;;;;8375993;28;20204;-63
2023/12/07 03:21:18;;;;;;;29.00;15.70;;;0.60;99.90;;;;;;8371134;28;20493;-64
2023/12/07 03:25:19;;;;;;;24.87;14.27;;;0.60;99.90;;;;;;8367729;28;20213;-63
2023/12/07 03:29:20;;;;;;;27.90;14.33;;;0.60;99.90;;;;;;8366020;28;20455;-63
2023/12/07 03:33:23;;;;;;;29.67;15.97;;;0.60;99.90;;;;;;8373908;28;20217;-63
2023/12/07 03:37:24;;;;;;;32.47;15.70;;;0.60;99.90;;;;;;8367957;28;20187;-63
2023/12/07 03:41:24;;;;;;;27.27;15.67;;;0.60;99.90;;;;;;8371295;28;20197;-61
2023/12/07 03:45:25;;;;;;;28.10;15.20;;;0.60;99.90;;;;;;8371700;28;20224;-64
2023/12/07 03:49:26;;;;;;;27.50;16.87;;;0.60;99.90;;;;;;8367832;28;20185;-63
2023/12/07 03:53:27;;;;;;;27.57;14.37;;;0.60;99.90;;;;;;8369048;28;20169;-63
2023/12/07 03:57:28;;;;;;;25.70;14.57;;;0.50;99.90;;;;;;8369394;28;20196;-63
2023/12/07 04:01:32;;;;;;;27.60;15.40;;;0.50;99.90;;;;;;8370242;28;20200;-63
2023/12/07 04:05:33;;;;;;;29.20;15.90;;;0.50;99.90;;;;;;8366469;28;20264;-63
2023/12/07 04:09:34;;;;;;;30.67;15.33;;;0.50;99.90;;;;;;8370436;28;20184;-63
2023/12/07 04:13:35;;;;;;;25.33;14.30;;;0.50;99.90;;;;;;8375135;28;20220;-63
2023/12/07 04:17:36;;;;;;;28.30;14.67;;;0.50;99.90;;;;;;8365975;28;20209;-62
2023/12/07 04:21:36;;;;;;;30.33;16.00;;;0.50;99.90;;;;;;8367711;28;20178;-63
2023/12/07 04:25:37;;;;;;;28.03;15.53;;;0.50;99.90;;;;;;8368581;28;20232;-62
2023/12/07 04:29:38;;;;;;;31.50;16.10;;;0.50;99.90;;;;;;8373675;28;20252;-69
2023/12/07 04:33:39;;;;;;;27.50;16.43;;;0.50;99.90;;;;;;8372222;28;20189;-68
2023/12/07 04:37:39;;;;;;;25.87;15.67;;;0.60;99.90;;;;;;8366858;28;20181;-68
2023/12/07 04:41:40;;;;;;;24.57;15.67;;;0.60;99.90;;;;;;8371069;28;20231;-68
2023/12/07 04:45:41;;;;;;;27.37;16.07;;;0.60;99.90;;;;;;8374539;28;20213;-67
2023/12/07 04:49:42;;;;;;;25.93;16.20;;;0.60;99.90;;;;;;8369567;28;20192;-69
2023/12/07 04:53:43;;;;;;;25.93;15.50;;;0.60;99.90;;;;;;8369787;28;20438;-67
2023/12/07 04:57:46;;;;;;;23.67;15.30;;;0.60;99.90;;;;;;8369925;28;20402;-68
2023/12/07 05:01:48;;;;;;;24.93;16.20;;;0.60;99.90;;;;;;8364083;28;20628;-69
2023/12/07 05:05:49;;;;;;;27.43;16.27;;;0.60;99.90;;;;;;8374386;28;20212;-70
2023/12/07 05:09:50;;;;;;;26.10;15.53;;;0.50;99.90;;;;;;8372703;28;20181;-68
2023/12/07 05:13:51;;;;;;;25.17;16.30;;;0.60;99.90;;;;;;8371949;28;20221;-66
2023/12/07 05:17:53;;;;;;;25.87;16.57;;;0.50;99.90;;;;;;8370133;28;20213;-68
2023/12/07 05:21:55;;;;;;;28.63;16.40;;;0.50;99.90;;;;;;8369058;28;20261;-68
2023/12/07 05:25:57;;;;;;;24.97;15.17;;;0.50;99.90;;;;;;8372280;28;20209;-69
2023/12/07 05:29:57;;;;;;;30.23;16.40;;;0.50;99.90;;;;;;8368410;28;20181;-68
2023/12/07 05:33:58;;;;;;;26.07;16.80;;;0.50;99.90;;;;;;8370054;28;20196;-69
2023/12/07 05:37:59;;;;;;;28.23;17.23;;;0.50;99.90;;;;;;8372272;28;20189;-68
2023/12/07 05:42:00;;;;;;;28.77;16.43;;;0.50;99.90;;;;;;8367860;28;20190;-68
2023/12/07 05:46:01;;;;;;;28.27;17.80;;;0.50;99.90;;;;;;8375535;28;20213;-68
2023/12/07 05:50:03;;;;;;;29.97;17.40;;;0.50;99.90;;;;;;8370850;28;20339;-67
2023/12/07 05:54:04;;;;;;;25.80;16.73;;;0.50;99.90;;;;;;8377787;28;20185;-67
2023/12/07 05:58:05;;;;;;;27.13;17.07;;;0.50;99.90;;;;;;8375083;28;20220;-67
2023/12/07 06:02:08;;;;;;;28.93;17.40;;;0.50;99.90;;;;;;8373686;28;20236;-68
2023/12/07 06:06:11;;;;;;;28.97;17.13;;;0.50;99.90;;;;;;8370821;28;20481;-69
2023/12/07 06:10:11;;;;;;;26.17;15.73;;;0.50;99.90;;;;;;8375160;28;20234;-69
2023/12/07 06:14:14;;;;;;;27.93;16.87;;;0.50;99.90;;;;;;8367537;28;20189;-66
2023/12/07 06:18:15;;;;;;;26.23;16.13;;;0.50;99.90;;;;;;8371013;28;20197;-67
2023/12/07 06:22:16;;;;;;;24.67;16.03;;;0.40;99.90;;;;;;8375503;28;20209;-68
2023/12/07 06:26:16;;;;;;;24.33;15.90;;;0.40;99.90;;;;;;8373160;28;20684;-68
2023/12/07 06:30:17;;;;;;;26.37;16.50;;;0.40;99.90;;;;;;8373646;28;20181;-67
2023/12/07 06:34:19;;;;;;;28.07;17.13;;;0.40;99.90;;;;;;8375196;28;20196;-67
2023/12/07 06:38:20;;;;;;;25.10;16.90;;;0.40;99.90;;;;;;8375355;28;20181;-67
2023/12/07 06:42:21;;;;;;;24.60;15.93;;;0.40;99.90;;;;;;8370365;28;20202;-66
2023/12/07 06:46:23;;;;;;;26.80;17.20;;;0.30;99.90;;;;;;8373613;28;20240;-69
2023/12/07 06:50:24;;;;;;;24.73;15.53;;;0.30;99.90;;;;;;8371906;28;20181;-67
2023/12/07 06:54:24;;;;;;;24.57;16.50;;;0.30;99.90;;;;;;8371949;28;20280;-68
2023/12/07 06:58:26;;;;;;;25.23;16.20;;;0.30;99.90;;;;;;8367607;28;20185;-67
2023/12/07 07:02:38;;;;;;;27.63;17.10;;;0.30;99.90;;;;;;8369556;28;20210;-69
2023/12/07 07:06:41;;;;;;;27.80;16.93;;;0.30;99.90;;;;;;8371626;28;20229;-69
2023/12/07 07:10:44;;;;;;;25.03;17.23;;;0.30;99.90;;;;;;8371666;28;20186;-69
2023/12/07 07:14:45;;;;;;;24.63;15.97;;;0.40;99.90;;;;;;8368869;28;20647;-68
2023/12/07 07:18:46;;;;;;;21.23;14.80;;;0.40;99.90;;;;;;8370820;28;20193;-69
2023/12/07 07:22:47;;;;;;;21.83;15.27;;;0.40;99.90;;;;;;8369412;28;20186;-68
2023/12/07 07:26:47;;;;;;;19.40;12.67;;;0.50;99.90;;;;;;8371894;28;20234;-68
2023/12/07 07:30:53;;;;;;;17.30;12.53;;;0.50;99.90;;;;;;8371021;28;20200;-69
2023/12/07 07:34:54;;;;;;;22.50;14.33;;;0.60;99.90;;;;;;8370989;28;20184;-69
2023/12/07 07:38:55;;;;;;;22.17;15.13;;;0.70;99.90;;;;;;8370449;28;20181;-69
2023/12/07 07:42:56;;;;;;;19.23;13.40;;;0.70;99.90;;;;;;8367681;28;20200;-68
2023/12/07 07:46:57;;;;;;;22.40;15.20;;;0.80;99.90;;;;;;8372929;28;20209;-69
2023/12/07 07:50:58;;;;;;;20.93;14.27;;;0.90;99.90;;;;;;8370469;28;20476;-68
2023/12/07 07:55:01;;;;;;;17.17;12.97;;;0.90;99.90;;;;;;8355251;28;20189;-69
2023/12/07 07:59:02;;;;;;;19.60;13.77;;;0.90;99.90;;;;;;8365310;28;20272;-69
2023/12/07 08:03:03;;;;;;;21.63;14.40;;;1.00;99.90;;;;;;8370957;28;20204;-69
2023/12/07 08:07:03;;;;;;;19.33;13.53;;;1.00;99.90;;;;;;8367828;28;20213;-68
2023/12/07 08:11:05;;;;;;;19.03;14.13;;;0.90;99.90;;;;;;8374224;28;20196;-68
2023/12/07 08:15:10;;;;;;;19.00;13.80;;;0.70;99.90;;;;;;8368888;28;20191;-68
2023/12/07 08:19:13;;;;;;;16.60;12.13;;;0.60;99.90;;;;;;8374751;28;20181;-67
2023/12/07 08:23:13;;;;;;;16.93;11.80;;;0.50;99.90;;;;;;8377074;28;20184;-67
2023/12/07 08:27:14;;;;;;;18.30;13.00;;;0.60;99.90;;;;;;8375483;28;20336;-67
2023/12/07 08:31:16;;;;;;;23.13;16.10;;;0.60;99.90;;;;;;8374064;28;20182;-67
2023/12/07 08:35:19;;;;;;;22.57;15.30;;;0.70;99.90;;;;;;8375615;28;20185;-67
2023/12/07 08:39:23;;;;;;;25.87;17.77;;;0.80;99.90;;;;;;8379498;28;20205;-67
2023/12/07 08:43:25;;;;;;;24.53;16.27;;;1.10;99.90;;;;;;8373667;28;20212;-67
2023/12/07 08:47:28;;;;;;;23.53;15.87;;;1.50;99.90;;;;;;8377763;28;20201;-67
2023/12/07 08:51:29;;;;;;;24.47;17.47;;;1.90;99.90;;;;;;8375056;28;20205;-68
2023/12/07 08:55:30;;;;;;;27.60;19.60;;;2.40;99.90;;;;;;8373901;28;20235;-68
2023/12/07 08:59:31;;;;;;;34.17;23.33;;;2.80;99.90;;;;;;8365783;28;20185;-68
2023/12/07 09:03:33;;;;;;;28.47;21.13;;;3.10;99.90;;;;;;8374582;28;20226;-68
2023/12/07 09:07:37;;;;;;;30.80;22.53;;;3.40;99.90;;;;;;8371057;28;20209;-67
2023/12/07 09:11:38;;;;;;;31.83;21.70;;;3.60;99.90;;;;;;8370235;28;20617;-68
2023/12/07 09:15:39;;;;;;;27.30;19.77;;;3.70;99.90;;;;;;8367640;28;20185;-67
2023/12/07 09:19:39;;;;;;;28.83;21.23;;;3.80;99.90;;;;;;8371666;28;20189;-68
2023/12/07 09:23:40;;;;;;;26.60;19.50;;;3.80;99.90;;;;;;8366825;28;20181;-67
2023/12/07 09:27:41;;;;;;;25.37;18.57;;;3.80;99.90;;;;;;8378128;28;20201;-70
2023/12/07 09:31:42;;;;;;;25.17;19.70;;;3.80;99.90;;;;;;8379475;28;20265;-69
2023/12/07 09:35:43;;;;;;;22.70;18.20;;;3.70;99.90;;;;;;8369011;28;20188;-69
2023/12/07 09:39:44;;;;;;;24.03;18.10;;;3.70;99.90;;;;;;8370467;28;20178;-69
2023/12/07 09:43:45;;;;;;;23.97;18.03;;;3.60;99.90;;;;;;8374413;28;20221;-69
2023/12/07 09:47:48;;;;;;;22.77;17.20;;;3.60;99.90;;;;;;8374439;28;20185;-69
2023/12/07 09:51:50;;;;;;;22.80;16.23;;;3.70;99.90;;;;;;8364433;28;20229;-69
2023/12/07 09:55:51;;;;;;;23.57;16.70;;;3.70;99.90;;;;;;8371569;28;20188;-68
2023/12/07 09:59:53;;;;;;;22.43;17.53;;;3.70;99.90;;;;;;8369017;28;20205;-69
2023/12/07 10:04:17;;;;;;;21.97;17.07;;;3.70;99.90;;;;;;8371935;28;20197;-68
2023/12/07 10:08:27;;;;;;;24.23;17.87;;;3.60;99.90;;;;;;8371454;28;20242;-68
2023/12/07 10:12:28;;;;;;;21.80;15.90;;;3.60;99.90;;;;;;8351140;28;20218;-68
2023/12/07 10:16:29;;;;;;;21.87;17.93;;;3.60;99.90;;;;;;8371461;28;20185;-68
2023/12/07 10:20:30;;;;;;;21.20;16.70;;;3.50;99.90;;;;;;8374793;28;20181;-68
2023/12/07 10:24:31;;;;;;;25.80;19.03;;;3.50;99.90;;;;;;8375362;28;20209;-68
2023/12/07 10:28:35;;;;;;;26.43;18.13;;;3.40;99.90;;;;;;8365664;28;20186;-68
2023/12/07 10:32:38;;;;;;;21.43;16.60;;;3.30;99.90;;;;;;8372617;28;20177;-67
2023/12/07 10:36:39;;;;;;;30.27;20.37;;;3.30;99.90;;;;;;8370634;28;20297;-67
2023/12/07 10:40:39;;;;;;;28.30;19.67;;;3.20;99.90;;;;;;8373391;28;20200;-66
2023/12/07 10:44:45;;;;;;;27.40;20.03;;;3.20;99.90;;;;;;8371996;28;20240;-67
2023/12/07 10:48:51;;;;;;;27.93;20.93;;;3.10;99.90;;;;;;8377259;28;20188;-68
2023/12/07 10:52:57;;;;;;;30.20;21.40;;;3.00;99.90;;;;;;8377677;28;20177;-68
2023/12/07 10:57:02;;;;;;;27.87;19.50;;;2.80;99.90;;;;;;8383260;28;20272;-68
2023/12/07 11:01:04;;;;;;;30.07;22.00;;;2.80;99.90;;;;;;8381062;28;20197;-68
2023/12/07 11:05:07;;;;;;;27.63;19.03;;;3.00;99.90;;;;;;8383674;28;20281;-68
2023/12/07 11:09:16;;;;;;;29.70;19.97;;;3.20;99.90;;;;;;8377333;28;20189;-68
2023/12/07 11:13:30;;;;;;;28.03;19.43;;;3.40;99.90;;;;;;8377583;28;20197;-68
2023/12/07 11:17:49;;;;;;;26.17;18.97;;;3.60;99.90;;;;;;8375232;28;20193;-69
2023/12/07 11:21:51;;;;;;;28.30;18.23;;;3.70;99.90;;;;;;8376653;28;20189;-68
2023/12/07 11:25:55;;;;;;;27.00;19.30;;;3.80;99.90;;;;;;8375708;28;20253;-68
2023/12/07 11:30:00;;;;;;;27.43;19.93;;;3.90;99.90;;;;;;8383447;28;20193;-67
2023/12/07 11:34:07;;;;;;;24.97;18.73;;;4.00;99.90;;;;;;8376174;28;20621;-68
2023/12/07 11:38:11;;;;;;;25.43;17.93;;;3.90;99.90;;;;;;8375046;28;20193;-68
2023/12/07 11:42:16;;;;;;;29.17;19.00;;;3.80;99.90;;;;;;8379587;28;20177;-68
2023/12/07 11:46:19;;;;;;;27.90;20.10;;;3.70;99.90;;;;;;8380115;28;20208;-69
2023/12/07 11:50:20;;;;;;;22.40;16.87;;;3.60;99.90;;;;;;8383441;28;20166;-67
2023/12/07 11:54:22;;;;;;;27.50;18.50;;;3.50;99.90;;;;;;8374883;28;20571;-68
2023/12/07 11:58:27;;;;;;;26.40;18.40;;;3.50;99.90;;;;;;8376058;28;20239;-68
2023/12/07 12:02:28;;;;;;;24.23;16.80;;;3.50;99.90;;;;;;8372806;28;20216;-68
2023/12/07 12:06:30;;;;;;;25.67;18.27;;;3.30;99.90;;;;;;8376218;28;20205;-68
2023/12/07 12:10:31;;;;;;;24.00;16.77;;;3.10;99.90;;;;;;8371883;28;20399;-68
2023/12/07 12:14:31;;;;;;;25.73;17.10;;;3.00;99.90;;;;;;8378586;28;20181;-69
2023/12/07 12:18:34;;;;;;;29.33;18.03;;;3.00;99.90;;;;;;8371693;28;20192;-69
2023/12/07 12:22:36;;;;;;;28.60;18.10;;;2.90;99.90;;;;;;8376638;28;20201;-69
2023/12/07 12:26:43;;;;;;;20.17;14.23;;;3.00;99.90;;;;;;8376711;28;20216;-68
2023/12/07 12:30:44;;;;;;;21.20;14.20;;;3.00;99.90;;;;;;8375809;28;20173;-69
2023/12/07 12:34:50;;;;;;;19.40;13.83;;;3.00;99.90;;;;;;8375672;28;20305;-68
2023/12/07 12:38:53;;;;;;;23.30;15.03;;;3.00;99.90;;;;;;8375392;28;20191;-68
2023/12/07 12:42:54;;;;;;;29.93;19.97;;;3.10;99.90;;;;;;8375310;28;20197;-68
2023/12/07 12:46:56;;;;;;;27.50;18.00;;;3.10;99.90;;;;;;8374863;28;20193;-68
2023/12/07 12:51:06;;;;;;;27.27;18.23;;;3.10;99.90;;;;;;8372571;28;20184;-68
2023/12/07 12:55:10;;;;;;;27.20;18.53;;;3.00;99.90;;;;;;8383562;28;20205;-67
2023/12/07 12:59:13;;;;;;;28.10;18.77;;;2.90;99.90;;;;;;8389347;28;20195;-67
2023/12/07 13:03:14;;;;;;;27.70;18.10;;;2.90;99.90;;;;;;8381837;28;20197;-68
2023/12/07 13:07:15;;;;;;;25.40;17.57;;;2.80;99.90;;;;;;8384728;28;20211;-68
2023/12/07 13:11:18;;;;;;;27.60;19.13;;;2.70;99.90;;;;;;8388633;28;20388;-68
2023/12/07 13:15:22;;;;;;;27.23;17.40;;;2.70;99.90;;;;;;8393873;28;20192;-68
2023/12/07 13:19:24;;;;;;;25.20;16.17;;;2.80;99.90;;;;;;8385524;28;20189;-68
2023/12/07 13:23:29;;;;;;;27.07;18.20;;;2.80;99.90;;;;;;8389923;28;20239;-68
2023/12/07 13:27:33;;;;;;;24.90;17.07;;;2.80;99.90;;;;;;8380614;28;20202;-67
2023/12/07 13:31:36;;;;;;;25.83;17.60;;;2.80;99.90;;;;;;8367237;28;20184;-66
2023/12/07 13:35:38;;;;;;;26.83;17.43;;;2.80;99.90;;;;;;8369544;28;20255;-66
2023/12/07 13:39:42;;;;;;;28.53;19.07;;;2.80;99.90;;;;;;8376925;28;20207;-67
2023/12/07 13:43:44;;;;;;;28.50;18.77;;;2.80;99.90;;;;;;8375655;28;20197;-65
2023/12/07 13:47:45;;;;;;;28.20;19.30;;;2.80;99.90;;;;;;8366718;28;20219;-67
2023/12/07 13:51:46;;;;;;;30.73;20.37;;;2.70;99.90;;;;;;8373239;28;20193;-66
2023/12/07 13:55:47;;;;;;;29.37;19.67;;;2.50;99.90;;;;;;8375624;28;20227;-66
2023/12/07 13:59:48;;;;;;;28.47;18.83;;;2.40;99.90;;;;;;8373307;28;20255;-67
2023/12/07 14:03:49;;;;;;;29.67;17.83;;;2.40;99.90;;;;;;8373432;28;20194;-67
2023/12/07 14:07:51;;;;;;;27.23;18.77;;;2.40;99.90;;;;;;8373681;28;20220;-65
2023/12/07 14:11:53;;;;;;;30.97;18.63;;;2.40;99.90;;;;;;8376146;28;20457;-65
2023/12/07 14:15:53;;;;;;;27.87;18.73;;;2.40;99.90;;;;;;8371225;28;20186;-66
2023/12/07 14:19:55;;;;;;;26.50;18.07;;;2.30;99.90;;;;;;8372815;28;20177;-66
2023/12/07 14:23:58;;;;;;;28.50;18.60;;;2.30;99.90;;;;;;8372358;28;20482;-67
2023/12/07 14:27:59;;;;;;;30.57;19.40;;;2.30;99.90;;;;;;8373960;28;20230;-67
2023/12/07 14:32:00;;;;;;;28.73;18.23;;;2.20;99.90;;;;;;8368275;28;20237;-67
2023/12/07 14:36:02;;;;;;;26.80;17.47;;;2.20;99.90;;;;;;8371308;28;20240;-68
2023/12/07 14:40:05;;;;;;;30.83;19.20;;;2.10;99.90;;;;;;8373444;28;20331;-67
2023/12/07 14:44:05;;;;;;;23.63;17.63;;;2.10;99.90;;;;;;8371557;28;20191;-67
2023/12/07 14:48:12;;;;;;;27.40;17.77;;;2.10;99.90;;;;;;8373627;28;20212;-70
2023/12/07 14:52:18;;;;;;;27.53;18.67;;;2.00;99.90;;;;;;8385602;28;20210;-68
2023/12/07 14:56:21;;;;;;;30.77;20.73;;;2.00;99.90;;;;;;8380649;28;20195;-68
2023/12/07 15:00:30;;;;;;;32.07;19.43;;;2.00;99.90;;;;;;8388343;28;20288;-68
2023/12/07 15:04:48;;;;;;;29.67;18.70;;;1.90;99.90;;;;;;8387331;28;20212;-67
2023/12/07 15:08:50;;;;;;;27.90;17.33;;;1.90;99.90;;;;;;8386501;28;20239;-67
2023/12/07 15:12:54;;;;;;;26.50;17.40;;;1.90;99.90;;;;;;8387022;28;20204;-67
2023/12/07 15:16:55;;;;;;;29.50;18.53;;;1.80;99.90;;;;;;8375689;28;20185;-67
2023/12/07 15:20:56;;;;;;;28.20;19.73;;;1.80;99.90;;;;;;8371781;28;20189;-66
2023/12/07 15:24:57;;;;;;;32.33;20.23;;;1.80;99.90;;;;;;8372329;28;20620;-65
2023/12/07 15:28:58;;;;;;;31.40;20.63;;;1.70;99.90;;;;;;8373445;28;20189;-66
2023/12/07 15:33:00;;;;;;;34.83;21.03;;;1.70;99.90;;;;;;8369330;28;20189;-66
2023/12/07 15:37:01;;;;;;;32.87;20.67;;;1.70;99.90;;;;;;8367790;28;20191;-66
2023/12/07 15:41:02;;;;;;;31.93;19.37;;;1.80;99.90;;;;;;8369698;28;20185;-63
2023/12/07 15:45:07;;;;;;;32.77;18.77;;;1.70;99.90;;;;;;8363558;28;20289;-64
2023/12/07 15:49:08;;;;;;;32.97;20.57;;;1.70;99.90;;;;;;8368058;28;20195;-65
2023/12/07 15:53:10;;;;;;;29.27;18.30;;;1.70;99.90;;;;;;8371280;28;20193;-64
2023/12/07 15:57:15;;;;;;;31.80;18.50;;;1.70;99.90;;;;;;8364673;28;20201;-67
2023/12/07 16:01:16;;;;;;;28.63;17.47;;;1.70;99.90;;;;;;8371651;28;20221;-67
2023/12/07 16:05:18;;;;;;;26.93;17.23;;;1.70;99.90;;;;;;8371366;28;21326;-67
2023/12/07 16:09:19;;;;;;;29.30;18.70;;;1.70;99.90;;;;;;8371948;28;20194;-67
2023/12/07 16:13:20;;;;;;;27.47;17.00;;;1.70;99.90;;;;;;8365379;28;20469;-67
2023/12/07 16:17:21;;;;;;;29.47;18.20;;;1.70;99.90;;;;;;8369275;28;20189;-67
2023/12/07 16:21:24;;;;;;;26.13;16.17;;;1.70;99.90;;;;;;8371173;28;20194;-67
2023/12/07 16:25:25;;;;;;;26.67;16.67;;;1.70;99.90;;;;;;8359708;28;20299;-66
2023/12/07 16:29:27;;;;;;;32.63;19.50;;;1.70;99.90;;;;;;8366818;28;20204;-67
2023/12/07 16:33:28;;;;;;;26.17;16.83;;;1.70;99.90;;;;;;8372389;28;20259;-67
2023/12/07 16:37:29;;;;;;;30.37;17.20;;;1.70;99.90;;;;;;8366096;28;20189;-67
2023/12/07 16:41:32;;;;;;;31.37;17.30;;;1.70;99.90;;;;;;8367838;28;20516;-67
2023/12/07 16:45:34;;;;;;;31.17;18.77;;;1.70;99.90;;;;;;8370339;28;20549;-67
2023/12/07 16:49:35;;;;;;;28.57;17.60;;;1.70;99.90;;;;;;8367473;28;20185;-67
2023/12/07 16:53:36;;;;;;;30.70;17.50;;;1.70;99.90;;;;;;8374705;28;20276;-67
2023/12/07 16:57:36;;;;;;;30.03;18.10;;;1.60;99.90;;;;;;8367506;28;20189;-66
2023/12/07 17:01:37;;;;;;;30.00;18.30;;;1.70;99.90;;;;;;8367705;28;20223;-67
2023/12/07 17:05:40;;;;;;;30.60;18.87;;;1.60;99.90;;;;;;8369491;28;20214;-67
2023/12/07 17:09:41;;;;;;;35.80;19.93;;;1.60;99.90;;;;;;8367940;28;20435;-64
2023/12/07 17:13:42;;;;;;;41.50;22.50;;;1.60;99.90;;;;;;8372433;28;20375;-65
2023/12/07 17:17:45;;;;;;;48.70;23.30;;;1.60;99.90;;;;;;8366290;28;20199;-66
2023/12/07 17:21:47;;;;;;;45.40;22.93;;;1.60;99.90;;;;;;8369250;28;20240;-64
2023/12/07 17:25:48;;;;;;;44.57;19.73;;;1.60;99.90;;;;;;8370334;28;20251;-64
2023/12/07 17:29:49;;;;;;;114.57;48.50;;;1.60;99.90;;;;;;8368546;28;20186;-63
2023/12/07 17:33:50;;;;;;;98.77;42.33;;;1.60;99.90;;;;;;8369299;28;20455;-63
2023/12/07 17:37:52;;;;;;;71.70;32.83;;;1.60;99.90;;;;;;8370253;28;20238;-64
2023/12/07 17:41:53;;;;;;;42.10;21.97;;;1.50;99.90;;;;;;8367684;28;20208;-66
2023/12/07 17:45:54;;;;;;;31.70;18.80;;;1.50;99.90;;;;;;8375566;28;20208;-66
2023/12/07 17:49:55;;;;;;;34.67;19.87;;;1.50;99.90;;;;;;8371950;28;20185;-62
2023/12/07 17:53:57;;;;;;;33.03;19.73;;;1.50;99.90;;;;;;8374394;28;20188;-64
2023/12/07 17:57:58;;;;;;;35.90;20.03;;;1.50;99.90;;;;;;8373286;28;20254;-62
2023/12/07 18:01:59;;;;;;;31.90;19.63;;;1.40;99.90;;;;;;8375345;28;20209;-62
2023/12/07 18:06:06;;;;;;;36.23;20.10;;;1.40;99.90;;;;;;8376239;28;20251;-62
2023/12/07 18:10:07;;;;;;;37.60;20.43;;;1.40;99.90;;;;;;8384821;28;20181;-62
2023/12/07 18:14:08;;;;;;;35.20;20.37;;;1.40;99.90;;;;;;8373538;28;20181;-62
2023/12/07 18:18:09;;;;;;;39.70;22.17;;;1.40;99.90;;;;;;8374647;28;20191;-63
2023/12/07 18:22:10;;;;;;;38.37;23.13;;;1.40;99.90;;;;;;8372189;28;20189;-63
2023/12/07 18:26:11;;;;;;;36.30;21.57;;;1.40;99.90;;;;;;8370590;28;20217;-63
2023/12/07 18:30:12;;;;;;;41.23;23.30;;;1.40;99.90;;;;;;8373758;28;20185;-63
2023/12/07 18:34:13;;;;;;;42.47;24.90;;;1.40;99.90;;;;;;8365603;28;20200;-62
2023/12/07 18:38:14;;;;;;;39.57;23.47;;;1.40;99.90;;;;;;8374781;28;20189;-62
2023/12/07 18:42:17;;;;;;;42.13;24.73;;;1.40;99.90;;;;;;8371136;28;20213;-62
2023/12/07 18:46:18;;;;;;;58.53;32.40;;;1.40;99.90;;;;;;8366871;28;20243;-63
2023/12/07 18:50:19;;;;;;;82.60;44.87;;;1.40;99.90;;;;;;8370125;28;20185;-63
2023/12/07 18:54:19;;;;;;;86.33;43.87;;;1.40;99.90;;;;;;8371285;28;20244;-62
2023/12/07 18:58:25;;;;;;;79.40;41.23;;;1.30;99.90;;;;;;8374661;28;20209;-63
2023/12/07 19:02:26;;;;;;;63.33;34.23;;;1.30;99.90;;;;;;8375753;28;20205;-64
2023/12/07 19:06:28;;;;;;;51.37;27.27;;;1.30;99.90;;;;;;8373667;28;20275;-63
2023/12/07 19:10:29;;;;;;;44.43;25.17;;;1.30;99.90;;;;;;8369410;28;20178;-62
2023/12/07 19:14:31;;;;;;;46.57;27.20;;;1.30;99.90;;;;;;8363521;28;20261;-64
2023/12/07 19:18:33;;;;;;;56.33;29.93;;;1.30;99.90;;;;;;8368658;28;20181;-64
2023/12/07 19:22:34;;;;;;;138.20;66.50;;;1.30;99.90;;;;;;8370790;28;20243;-62
2023/12/07 19:26:35;;;;;;;321.17;119.03;;;1.30;99.90;;;;;;8369289;28;20205;-64
2023/12/07 19:30:36;;;;;;;189.30;80.13;;;1.30;99.90;;;;;;8372086;28;20196;-64
2023/12/07 19:34:37;;;;;;;202.50;106.60;;;1.30;99.90;;;;;;8361123;28;20206;-63
2023/12/07 19:38:38;;;;;;;141.50;74.83;;;1.30;99.90;;;;;;8371167;28;20192;-67
2023/12/07 19:42:38;;;;;;;63.23;39.93;;;1.30;99.90;;;;;;8373328;28;20256;-67
2023/12/07 19:46:41;;;;;;;51.23;27.90;;;1.30;99.90;;;;;;8379897;28;20200;-67
2023/12/07 19:50:42;;;;;;;40.57;23.47;;;1.30;99.90;;;;;;8374214;28;20189;-69
2023/12/07 19:54:43;;;;;;;68.50;34.37;;;1.30;99.90;;;;;;8375196;28;20507;-68
2023/12/07 19:58:44;;;;;;;166.87;71.47;;;1.30;99.90;;;;;;8373737;28;20235;-68
2023/12/07 20:02:45;;;;;;;119.73;52.90;;;1.30;99.90;;;;;;8367501;28;20203;-67
2023/12/07 20:06:48;;;;;;;89.33;44.47;;;1.30;99.90;;;;;;8372475;28;20298;-68
2023/12/07 20:10:55;;;;;;;65.67;34.13;;;1.30;99.90;;;;;;8371136;28;20182;-68
2023/12/07 20:14:56;;;;;;;50.50;28.27;;;1.30;99.90;;;;;;8375734;28;20185;-68
2023/12/07 20:19:06;;;;;;;42.40;23.70;;;1.30;99.90;;;;;;8374581;28;20185;-68
2023/12/07 20:23:08;;;;;;;67.80;39.27;;;1.30;99.90;;;;;;8386024;28;20308;-67
2023/12/07 20:27:09;;;;;;;78.60;39.80;;;1.30;99.90;;;;;;8373835;28;20264;-67
2023/12/07 20:31:10;;;;;;;70.43;37.13;;;1.30;99.90;;;;;;8369162;28;20197;-67
2023/12/07 20:35:10;;;;;;;67.27;34.73;;;1.30;99.90;;;;;;8375277;28;20189;-67
2023/12/07 20:39:16;;;;;;;64.63;37.37;;;1.30;99.90;;;;;;8388165;28;20246;-68
2023/12/07 20:43:17;;;;;;;70.17;38.00;;;1.30;99.90;;;;;;8372384;28;20205;-68